createdAt,value
2023-01-27T00:00:51.914Z,92.99
2023-01-27T00:03:19.610Z,92.94
2023-01-27T00:05:47.337Z,93.02
2023-01-27T00:08:14.538Z,92.80
2023-01-27T00:10:41.501Z,93.06
2023-01-27T00:13:27.846Z,93.04
2023-01-27T00:15:55.635Z,92.95
2023-01-27T00:18:23.643Z,92.98
2023-01-27T00:21:09.616Z,92.94
2023-01-27T00:23:55.532Z,92.52
2023-01-27T00:26:23.208Z,93.10
2023-01-27T00:28:50.179Z,92.90
2023-01-27T00:31:38.068Z,92.97
2023-01-27T00:34:11.299Z,92.91
2023-01-27T00:36:41.616Z,93.03
2023-01-27T00:39:11.064Z,92.83
2023-01-27T00:41:39.288Z,93.28
2023-01-27T00:44:12.534Z,93.01
2023-01-27T00:46:41.156Z,93.27
2023-01-27T00:49:10.719Z,93.02
2023-01-27T00:51:37.663Z,93.17
2023-01-27T00:54:05.213Z,93.11
2023-01-27T00:56:32.669Z,92.97
2023-01-27T00:58:59.999Z,93.03
2023-01-27T01:01:27.546Z,93.07
2023-01-27T01:03:54.530Z,93.06
2023-01-27T01:06:21.652Z,93.04
2023-01-27T01:08:48.917Z,93.06
2023-01-27T01:11:17.360Z,92.95
2023-01-27T01:13:46.543Z,93.12
2023-01-27T01:16:20.608Z,93.03
2023-01-27T01:18:49.122Z,93.09
2023-01-27T01:21:16.911Z,93.23
2023-01-27T01:23:45.833Z,93.09
2023-01-27T01:26:15.563Z,92.95
2023-01-27T01:28:46.988Z,93.19
2023-01-27T01:31:19.409Z,93.20
2023-01-27T01:33:47.753Z,93.20
2023-01-27T01:36:20.674Z,92.96
2023-01-27T01:38:48.857Z,93.12
2023-01-27T01:41:20.652Z,93.10
2023-01-27T01:43:49.896Z,93.11
2023-01-27T01:46:18.266Z,93.01
2023-01-27T01:48:56.008Z,93.07
2023-01-27T01:51:26.982Z,93.01
2023-01-27T01:54:09.380Z,93.06
2023-01-27T01:56:58.078Z,92.79
2023-01-27T01:59:35.453Z,93.19
2023-01-27T02:02:10.896Z,93.00
2023-01-27T02:04:46.260Z,93.21
2023-01-27T02:07:49.818Z,93.18
2023-01-27T02:10:16.881Z,93.27
2023-01-27T02:12:45.699Z,93.20
2023-01-27T02:15:13.362Z,93.16
2023-01-27T02:17:41.024Z,93.22
2023-01-27T02:20:30.436Z,93.23
2023-01-27T02:23:09.145Z,93.26
2023-01-27T02:25:40.210Z,93.14
2023-01-27T02:28:08.666Z,93.23
2023-01-27T02:30:35.759Z,93.07
2023-01-27T02:33:13.710Z,93.24
2023-01-27T02:36:12.154Z,93.29
2023-01-27T02:38:49.169Z,93.09
2023-01-27T02:41:32.662Z,93.45
2023-01-27T02:44:00.557Z,93.11
2023-01-27T02:46:28.024Z,93.36
2023-01-27T02:48:55.154Z,93.28
2023-01-27T02:51:23.314Z,93.13
2023-01-27T02:53:50.367Z,93.13
2023-01-27T02:56:17.296Z,93.13
2023-01-27T02:58:44.492Z,93.09
2023-01-27T03:01:15.605Z,93.15
2023-01-27T03:03:47.239Z,92.96
2023-01-27T03:06:20.167Z,93.31
2023-01-27T03:08:47.860Z,93.28
2023-01-27T03:11:36.327Z,93.15
2023-01-27T03:14:03.944Z,93.25
2023-01-27T03:16:49.237Z,93.22
2023-01-27T03:19:17.151Z,93.16
2023-01-27T03:21:45.180Z,93.11
2023-01-27T03:24:12.726Z,93.23
2023-01-27T03:26:39.801Z,93.29
2023-01-27T03:29:26.857Z,93.20
2023-01-27T03:31:53.944Z,93.43
2023-01-27T03:34:21.463Z,93.35
2023-01-27T03:37:09.312Z,93.09
2023-01-27T03:39:55.327Z,93.16
2023-01-27T03:42:41.629Z,93.21
2023-01-27T03:45:27.999Z,93.14
2023-01-27T03:47:54.954Z,93.34
2023-01-27T03:50:31.060Z,93.42
2023-01-27T03:53:04.254Z,92.98
2023-01-27T03:55:32.991Z,93.25
2023-01-27T03:58:14.446Z,93.35
2023-01-27T04:00:41.594Z,93.30
2023-01-27T04:03:27.107Z,93.25
2023-01-27T04:06:12.917Z,93.37
2023-01-27T04:08:43.458Z,93.11
2023-01-27T04:11:31.512Z,93.27
2023-01-27T04:14:05.319Z,93.09
2023-01-27T04:16:34.334Z,93.45
2023-01-27T04:19:01.354Z,93.30
2023-01-27T04:21:28.487Z,93.14
2023-01-27T04:23:55.844Z,93.30
2023-01-27T04:26:23.177Z,93.35
2023-01-27T04:28:50.561Z,93.27
2023-01-27T04:31:18.158Z,93.36
2023-01-27T04:33:45.357Z,93.48
2023-01-27T04:36:15.589Z,93.46
2023-01-27T04:38:42.798Z,93.34
2023-01-27T04:41:10.035Z,93.28
2023-01-27T04:43:37.098Z,93.15
2023-01-27T04:46:04.207Z,93.63
2023-01-27T04:48:31.176Z,93.16
2023-01-27T04:50:58.093Z,93.23
2023-01-27T04:53:25.046Z,93.26
2023-01-27T04:55:51.936Z,93.56
2023-01-27T04:58:19.116Z,93.25
2023-01-27T05:00:46.153Z,93.30
2023-01-27T05:03:13.178Z,93.49
2023-01-27T05:05:40.136Z,93.50
2023-01-27T05:08:10.194Z,93.35
2023-01-27T05:10:37.434Z,93.27
2023-01-27T05:13:04.428Z,93.26
2023-01-27T05:15:31.512Z,93.45
2023-01-27T05:17:58.433Z,93.66
2023-01-27T05:20:25.377Z,93.42
2023-01-27T05:23:12.288Z,93.49
2023-01-27T05:25:43.929Z,93.30
2023-01-27T05:28:12.133Z,93.31
2023-01-27T05:30:39.537Z,93.41
2023-01-27T05:33:08.280Z,93.42
2023-01-27T05:35:35.813Z,93.42
2023-01-27T05:38:03.014Z,93.30
2023-01-27T05:40:30.108Z,93.49
2023-01-27T05:42:57.044Z,93.41
2023-01-27T05:45:23.939Z,93.46
2023-01-27T05:47:51.497Z,93.27
2023-01-27T05:50:19.126Z,93.27
2023-01-27T05:52:46.438Z,93.50
2023-01-27T05:55:13.708Z,93.38
2023-01-27T05:57:40.811Z,93.29
2023-01-27T06:00:08.683Z,93.30
2023-01-27T06:02:35.640Z,93.29
2023-01-27T06:05:02.727Z,93.29
2023-01-27T06:07:29.716Z,93.63
2023-01-27T06:09:56.644Z,93.54
2023-01-27T06:12:23.584Z,93.35
2023-01-27T06:14:50.527Z,93.61
2023-01-27T06:17:17.461Z,93.63
2023-01-27T06:19:44.395Z,93.41
2023-01-27T06:22:11.334Z,93.58
2023-01-27T06:24:38.241Z,93.23
2023-01-27T06:27:05.128Z,93.35
2023-01-27T06:29:32.185Z,93.35
2023-01-27T06:31:59.148Z,93.40
2023-01-27T06:34:26.084Z,93.37
2023-01-27T06:36:54.063Z,93.52
2023-01-27T06:39:21.269Z,93.51
2023-01-27T06:41:50.281Z,93.50
2023-01-27T06:44:17.275Z,93.38
2023-01-27T06:46:44.274Z,93.42
2023-01-27T06:49:11.269Z,93.36
2023-01-27T06:51:38.178Z,93.52
2023-01-27T06:54:05.333Z,93.58
2023-01-27T06:56:32.293Z,93.28
2023-01-27T06:58:59.207Z,93.58
2023-01-27T07:01:26.169Z,93.53
2023-01-27T07:03:53.133Z,93.66
2023-01-27T07:06:20.486Z,93.59
2023-01-27T07:08:47.500Z,93.46
2023-01-27T07:11:14.542Z,93.42
2023-01-27T07:13:41.615Z,93.45
2023-01-27T07:16:08.659Z,93.59
2023-01-27T07:18:35.580Z,93.65
2023-01-27T07:21:05.462Z,93.44
2023-01-27T07:23:32.477Z,93.52
2023-01-27T07:26:04.285Z,93.51
2023-01-27T07:28:32.748Z,93.50
2023-01-27T07:31:03.287Z,93.30
2023-01-27T07:33:30.343Z,93.33
2023-01-27T07:35:57.542Z,93.36
2023-01-27T07:38:24.551Z,93.54
2023-01-27T07:40:51.518Z,93.59
2023-01-27T07:43:18.497Z,93.46
2023-01-27T07:45:51.054Z,93.44
2023-01-27T07:48:17.927Z,93.40
2023-01-27T07:50:44.889Z,93.60
2023-01-27T07:53:11.866Z,93.58
2023-01-27T07:55:38.942Z,93.69
2023-01-27T07:58:06.138Z,93.86
2023-01-27T08:00:34.039Z,93.86
2023-01-27T08:03:02.885Z,93.69
2023-01-27T08:05:34.205Z,93.71
2023-01-27T08:08:04.196Z,93.71
2023-01-27T08:10:31.451Z,93.63
2023-01-27T08:12:58.391Z,93.87
2023-01-27T08:15:25.355Z,93.78
2023-01-27T08:17:59.728Z,93.73
2023-01-27T08:20:27.926Z,93.91
2023-01-27T08:22:55.420Z,93.84
2023-01-27T08:25:22.947Z,93.86
2023-01-27T08:27:52.530Z,94.05
2023-01-27T08:30:20.049Z,93.95
2023-01-27T08:32:47.754Z,93.78
2023-01-27T08:35:14.956Z,93.87
2023-01-27T08:37:41.942Z,94.09
2023-01-27T08:40:10.022Z,94.02
2023-01-27T08:42:36.965Z,94.21
2023-01-27T08:45:04.316Z,93.91
2023-01-27T08:47:31.241Z,94.09
2023-01-27T08:49:58.242Z,94.16
2023-01-27T08:52:27.563Z,94.16
2023-01-27T08:54:54.476Z,94.30
2023-01-27T08:57:21.386Z,94.24
2023-01-27T08:59:48.308Z,94.42
2023-01-27T09:02:15.198Z,94.10
2023-01-27T09:04:44.245Z,94.53
2023-01-27T09:07:11.564Z,94.22
2023-01-27T09:09:38.452Z,94.35
2023-01-27T09:12:05.467Z,94.55
2023-01-27T09:14:32.552Z,94.40
2023-01-27T09:16:59.532Z,94.52
2023-01-27T09:19:26.434Z,94.66
2023-01-27T09:21:53.346Z,94.60
2023-01-27T09:24:20.499Z,94.63
2023-01-27T09:26:47.600Z,94.95
2023-01-27T09:29:14.631Z,94.75
2023-01-27T09:31:41.720Z,94.80
2023-01-27T09:34:08.707Z,94.56
2023-01-27T09:36:42.977Z,94.66
2023-01-27T09:39:11.667Z,94.88
2023-01-27T09:42:18.286Z,94.63
2023-01-27T09:45:40.465Z,94.92
2023-01-27T09:48:33.657Z,94.89
2023-01-27T09:51:22.911Z,94.78
2023-01-27T09:54:23.756Z,94.98
2023-01-27T09:57:24.667Z,95.10
2023-01-27T10:00:21.794Z,95.04
2023-01-27T10:03:12.430Z,95.07
2023-01-27T10:06:20.004Z,94.88
2023-01-27T10:09:20.755Z,95.08
2023-01-27T10:12:16.696Z,95.18
2023-01-27T10:15:08.483Z,95.11
2023-01-27T10:18:10.734Z,95.15
2023-01-27T10:21:08.352Z,95.30
2023-01-27T10:23:53.353Z,95.32
2023-01-27T10:26:31.837Z,95.51
2023-01-27T10:29:09.668Z,94.97
2023-01-27T10:31:45.785Z,95.29
2023-01-27T10:34:34.322Z,95.50
2023-01-27T10:37:53.940Z,95.46
2023-01-27T10:40:35.995Z,95.81
2023-01-27T10:43:28.249Z,95.84
2023-01-27T10:46:34.193Z,95.96
2023-01-27T10:49:24.143Z,95.87
2023-01-27T10:52:13.606Z,96.23
2023-01-27T10:55:28.283Z,96.33
2023-01-27T10:58:16.701Z,95.94
2023-01-27T11:01:19.390Z,95.30
2023-01-27T11:03:57.409Z,95.91
2023-01-27T11:06:30.714Z,96.07
2023-01-27T11:09:24.007Z,96.15
2023-01-27T11:11:52.748Z,95.95
2023-01-27T11:14:30.121Z,96.00
2023-01-27T11:17:14.185Z,96.00
2023-01-27T11:19:54.432Z,95.93
2023-01-27T11:22:28.643Z,96.11
2023-01-27T11:25:13.905Z,96.37
2023-01-27T11:28:24.225Z,96.35
2023-01-27T11:31:40.434Z,96.57
2023-01-27T11:34:16.184Z,96.17
2023-01-27T11:36:43.276Z,96.12
2023-01-27T11:39:11.868Z,96.32
2023-01-27T11:41:56.040Z,96.57
2023-01-27T11:44:34.272Z,96.46
2023-01-27T11:47:06.172Z,96.26
2023-01-27T11:49:42.868Z,96.33
2023-01-27T11:52:17.423Z,96.37
2023-01-27T11:55:19.951Z,96.45
2023-01-27T11:58:11.499Z,96.89
2023-01-27T12:00:45.217Z,96.51
2023-01-27T12:03:41.700Z,96.12
2023-01-27T12:06:33.714Z,96.37
2023-01-27T12:09:00.730Z,96.41
2023-01-27T12:11:32.397Z,96.77
2023-01-27T12:14:01.839Z,96.19
2023-01-27T12:16:48.934Z,95.89
2023-01-27T12:19:32.021Z,96.03
2023-01-27T12:22:06.257Z,96.41
2023-01-27T12:24:41.940Z,96.64
2023-01-27T12:27:24.407Z,96.33
2023-01-27T12:30:02.343Z,96.48
2023-01-27T12:32:46.859Z,96.42
2023-01-27T12:35:28.949Z,96.36
2023-01-27T12:38:02.716Z,96.35
2023-01-27T12:40:30.077Z,96.04
2023-01-27T12:43:09.963Z,96.21
2023-01-27T12:45:39.540Z,96.22
2023-01-27T12:48:09.082Z,96.47
2023-01-27T12:50:40.054Z,96.33
2023-01-27T12:53:22.074Z,96.57
2023-01-27T12:56:23.597Z,96.38
2023-01-27T12:59:00.351Z,96.64
2023-01-27T13:01:37.684Z,96.41
2023-01-27T13:04:10.385Z,96.45
2023-01-27T13:06:48.405Z,96.43
2023-01-27T13:09:31.904Z,96.48
2023-01-27T13:12:21.785Z,96.34
2023-01-27T13:14:56.628Z,96.52
2023-01-27T13:17:53.072Z,96.65
2023-01-27T13:20:47.601Z,96.33
2023-01-27T13:23:29.734Z,96.60
2023-01-27T13:26:10.320Z,96.53
2023-01-27T13:29:01.737Z,96.60
2023-01-27T13:31:51.896Z,96.47
2023-01-27T13:34:38.902Z,96.51
2023-01-27T13:37:31.499Z,96.23
2023-01-27T13:40:29.552Z,96.36
2023-01-27T13:43:33.667Z,95.28
2023-01-27T13:46:33.341Z,96.46
2023-01-27T13:49:16.349Z,96.20
2023-01-27T13:51:43.360Z,96.08
2023-01-27T13:54:15.462Z,96.17
2023-01-27T13:57:48.273Z,96.72
2023-01-27T14:00:51.489Z,96.76
2023-01-27T14:03:55.759Z,96.69
2023-01-27T14:07:02.021Z,96.77
2023-01-27T14:09:53.881Z,96.60
2023-01-27T14:12:52.197Z,96.61
2023-01-27T14:16:02.400Z,96.54
2023-01-27T14:18:51.590Z,96.50
2023-01-27T14:21:47.065Z,96.30
2023-01-27T14:24:40.529Z,96.16
2023-01-27T14:27:43.740Z,96.50
2023-01-27T14:30:22.554Z,96.17
2023-01-27T14:33:05.920Z,96.19
2023-01-27T14:35:50.870Z,96.24
2023-01-27T14:38:37.704Z,96.48
2023-01-27T14:41:10.682Z,96.18
2023-01-27T14:44:20.578Z,96.34
2023-01-27T14:47:30.401Z,96.49
2023-01-27T14:50:17.033Z,96.50
2023-01-27T14:53:25.516Z,96.62
2023-01-27T14:56:07.317Z,96.84
2023-01-27T14:59:11.175Z,97.11
2023-01-27T15:01:48.132Z,96.80
2023-01-27T15:04:33.334Z,96.87
2023-01-27T15:07:19.304Z,97.00
2023-01-27T15:10:24.375Z,97.03
2023-01-27T15:13:06.715Z,97.03
2023-01-27T15:16:11.739Z,96.83
2023-01-27T15:18:50.776Z,96.89
2023-01-27T15:21:44.762Z,96.64
2023-01-27T15:24:54.207Z,96.55
2023-01-27T15:27:22.425Z,96.29
2023-01-27T15:29:49.430Z,96.24
2023-01-27T15:32:16.313Z,96.02
2023-01-27T15:34:52.630Z,96.35
2023-01-27T15:37:30.112Z,96.03
2023-01-27T15:40:05.877Z,96.17
2023-01-27T15:42:55.259Z,96.45
2023-01-27T15:45:34.822Z,96.22
2023-01-27T15:48:15.677Z,96.19
2023-01-27T15:51:01.042Z,95.87
2023-01-27T15:53:45.002Z,95.85
2023-01-27T15:56:12.162Z,95.98
2023-01-27T15:58:43.301Z,95.91
2023-01-27T16:01:22.731Z,96.12
2023-01-27T16:03:52.966Z,95.89
2023-01-27T16:06:26.246Z,95.87
2023-01-27T16:09:01.375Z,95.97
2023-01-27T16:11:28.142Z,95.69
2023-01-27T16:14:16.783Z,95.64
2023-01-27T16:17:24.891Z,95.75
2023-01-27T16:19:57.754Z,95.46
2023-01-27T16:22:26.633Z,95.45
2023-01-27T16:25:26.984Z,95.53
2023-01-27T16:28:22.332Z,95.37
2023-01-27T16:31:10.933Z,95.35
2023-01-27T16:33:42.245Z,95.25
2023-01-27T16:36:29.694Z,95.36
2023-01-27T16:39:09.418Z,95.18
2023-01-27T16:41:39.204Z,95.44
2023-01-27T16:44:28.427Z,95.14
2023-01-27T16:47:05.040Z,95.12
2023-01-27T16:49:43.300Z,94.97
2023-01-27T16:52:41.888Z,95.03
2023-01-27T16:55:24.077Z,94.76
2023-01-27T16:57:56.954Z,95.09
2023-01-27T17:00:38.777Z,95.18
2023-01-27T17:03:17.939Z,95.02
2023-01-27T17:05:56.014Z,94.93
2023-01-27T17:08:35.655Z,94.83
2023-01-27T17:11:33.763Z,94.83
2023-01-27T17:14:04.305Z,94.84
2023-01-27T17:16:45.696Z,94.94
2023-01-27T17:19:24.126Z,94.94
2023-01-27T17:22:17.805Z,94.65
2023-01-27T17:24:52.803Z,95.02
2023-01-27T17:27:28.827Z,94.74
2023-01-27T17:30:08.269Z,94.88
2023-01-27T17:32:37.855Z,94.71
2023-01-27T17:35:26.697Z,94.75
2023-01-27T17:38:21.957Z,94.74
2023-01-27T17:40:51.921Z,94.69
2023-01-27T17:43:39.401Z,94.55
2023-01-27T17:46:23.386Z,94.40
2023-01-27T17:49:12.974Z,94.44
2023-01-27T17:52:00.166Z,94.45
2023-01-27T17:54:35.166Z,94.54
2023-01-27T17:57:25.016Z,94.63
2023-01-27T18:00:04.434Z,94.61
2023-01-27T18:03:02.520Z,94.48
2023-01-27T18:05:33.326Z,94.75
2023-01-27T18:08:01.728Z,94.26
2023-01-27T18:10:34.598Z,94.56
2023-01-27T18:13:12.531Z,94.41
2023-01-27T18:16:01.776Z,94.44
2023-01-27T18:18:32.075Z,94.34
2023-01-27T18:21:15.003Z,94.36
2023-01-27T18:23:56.598Z,94.42
2023-01-27T18:26:38.766Z,94.19
2023-01-27T18:29:19.758Z,94.32
2023-01-27T18:32:14.114Z,94.29
2023-01-27T18:34:49.600Z,94.37
2023-01-27T18:37:33.839Z,94.39
2023-01-27T18:40:21.401Z,94.32
2023-01-27T18:42:53.369Z,94.36
2023-01-27T18:45:20.466Z,94.36
2023-01-27T18:47:47.550Z,94.11
2023-01-27T18:50:21.695Z,94.20
2023-01-27T18:52:50.086Z,94.05
2023-01-27T18:55:29.190Z,94.23
2023-01-27T18:57:58.961Z,94.33
2023-01-27T19:00:40.136Z,94.28
2023-01-27T19:03:11.722Z,94.29
2023-01-27T19:05:38.626Z,94.10
2023-01-27T19:08:06.309Z,94.25
2023-01-27T19:10:35.113Z,93.99
2023-01-27T19:13:03.898Z,94.05
2023-01-27T19:15:38.228Z,94.33
2023-01-27T19:18:24.974Z,94.28
2023-01-27T19:20:52.792Z,94.01
2023-01-27T19:23:21.496Z,94.31
2023-01-27T19:25:53.574Z,94.21
2023-01-27T19:28:38.548Z,93.70
2023-01-27T19:31:07.289Z,94.09
2023-01-27T19:33:37.080Z,94.16
2023-01-27T19:36:34.864Z,93.99
2023-01-27T19:39:13.617Z,93.89
2023-01-27T19:41:41.889Z,94.17
2023-01-27T19:44:10.455Z,94.12
2023-01-27T19:46:42.720Z,93.92
2023-01-27T19:49:18.163Z,93.85
2023-01-27T19:51:45.560Z,94.08
2023-01-27T19:54:12.738Z,94.02
2023-01-27T19:56:39.652Z,94.07
2023-01-27T19:59:06.831Z,93.76
2023-01-27T20:01:33.742Z,94.13
2023-01-27T20:04:00.803Z,93.85
2023-01-27T20:06:30.993Z,93.71
2023-01-27T20:09:00.225Z,93.97
2023-01-27T20:11:43.204Z,93.81
2023-01-27T20:14:23.650Z,93.78
2023-01-27T20:16:50.585Z,93.72
2023-01-27T20:19:17.603Z,93.67
2023-01-27T20:21:46.363Z,94.21
2023-01-27T20:24:18.607Z,94.02
2023-01-27T20:26:46.471Z,93.57
2023-01-27T20:29:14.005Z,94.12
2023-01-27T20:31:41.204Z,93.63
2023-01-27T20:34:08.220Z,93.90
2023-01-27T20:36:35.396Z,93.78
2023-01-27T20:39:02.374Z,93.53
2023-01-27T20:41:29.411Z,93.67
2023-01-27T20:44:00.186Z,93.60
2023-01-27T20:46:29.059Z,93.57
2023-01-27T20:48:57.907Z,93.57
2023-01-27T20:51:24.888Z,93.76
2023-01-27T20:53:51.866Z,93.75
2023-01-27T20:56:22.546Z,93.51
2023-01-27T20:58:50.233Z,93.46
2023-01-27T21:01:22.973Z,93.59
2023-01-27T21:03:50.752Z,93.61
2023-01-27T21:06:19.853Z,93.77
2023-01-27T21:08:47.761Z,93.49
2023-01-27T21:11:17.618Z,93.70
2023-01-27T21:13:44.873Z,93.75
2023-01-27T21:16:12.367Z,93.68
2023-01-27T21:18:39.371Z,93.62
2023-01-27T21:21:06.403Z,93.39
2023-01-27T21:23:34.863Z,93.89
2023-01-27T21:26:09.439Z,93.48
2023-01-27T21:28:36.546Z,93.55
2023-01-27T21:31:13.535Z,93.50
2023-01-27T21:33:41.314Z,93.38
2023-01-27T21:36:10.743Z,93.66
2023-01-27T21:38:38.994Z,93.25
2023-01-27T21:41:35.059Z,93.58
2023-01-27T21:44:21.410Z,93.62
2023-01-27T21:46:48.632Z,93.31
2023-01-27T21:49:20.559Z,93.16
2023-01-27T21:51:50.046Z,93.29
2023-01-27T21:54:21.384Z,93.61
2023-01-27T21:56:54.240Z,93.58
2023-01-27T21:59:21.177Z,93.59
2023-01-27T22:01:48.119Z,93.17
2023-01-27T22:04:15.273Z,93.25
2023-01-27T22:06:42.390Z,93.34
2023-01-27T22:09:09.748Z,93.42
2023-01-27T22:11:37.071Z,93.37
2023-01-27T22:14:03.983Z,93.59
2023-01-27T22:16:30.919Z,93.56
2023-01-27T22:18:57.830Z,93.30
2023-01-27T22:21:24.769Z,93.53
2023-01-27T22:23:51.707Z,93.57
2023-01-27T22:26:20.650Z,93.21
2023-01-27T22:28:48.374Z,93.25
2023-01-27T22:31:15.320Z,93.49
2023-01-27T22:33:42.222Z,93.37
2023-01-27T22:36:09.592Z,93.22
2023-01-27T22:38:39.812Z,93.39
2023-01-27T22:41:06.761Z,93.48
2023-01-27T22:43:33.725Z,93.64
2023-01-27T22:46:02.787Z,93.54
2023-01-27T22:48:30.586Z,93.42
2023-01-27T22:50:57.555Z,93.59
2023-01-27T22:53:24.511Z,93.52
2023-01-27T22:55:59.558Z,93.38
2023-01-27T22:58:27.679Z,93.49
2023-01-27T23:00:54.958Z,93.34
2023-01-27T23:03:23.129Z,93.42
2023-01-27T23:05:50.314Z,93.27
2023-01-27T23:08:20.649Z,93.20
2023-01-27T23:10:48.812Z,93.43
2023-01-27T23:13:16.218Z,93.40
2023-01-27T23:15:43.113Z,93.38
2023-01-27T23:18:13.214Z,93.19
2023-01-27T23:20:42.190Z,93.22
2023-01-27T23:23:10.285Z,93.26
2023-01-27T23:25:45.259Z,93.13
2023-01-27T23:28:19.805Z,93.24
2023-01-27T23:30:50.017Z,93.45
2023-01-27T23:33:19.409Z,93.11
2023-01-27T23:35:47.050Z,93.25
2023-01-27T23:38:26.595Z,93.28
2023-01-27T23:41:08.064Z,93.32
2023-01-27T23:43:35.012Z,93.22
2023-01-27T23:46:01.994Z,93.21
2023-01-27T23:48:28.935Z,93.40
2023-01-27T23:50:56.293Z,93.12
2023-01-27T23:53:23.525Z,93.42
2023-01-27T23:56:00.037Z,93.29
2023-01-27T23:58:27.724Z,93.38
